Time;durP1;ratioP1;P1;durP2;ratioP2;P2;SDS_P1;SDS_P2;PMS_P1;PMS_P2;Temp;Humidity;BMP_temperature;BMP_pressure;BME280_temperature;BME280_humidity;BME280_pressure;Samples;Min_cycle;Max_cycle;Signal;HPM_P1;HPM_P2
2023/12/03 00:01:54;;;;;;;2.17;1.98;;;8.00;57.20;;;;;;5054094;28;20490;-63
2023/12/03 00:04:20;;;;;;;3.47;2.20;;;7.90;56.60;;;;;;5054162;28;20021;-66
2023/12/03 00:06:46;;;;;;;2.42;2.22;;;7.70;56.70;;;;;;5053919;28;20016;-63
2023/12/03 00:09:12;;;;;;;2.28;2.00;;;7.70;57.50;;;;;;5053682;28;20056;-65
2023/12/03 00:11:37;;;;;;;1.83;1.70;;;7.80;58.00;;;;;;5054039;28;20029;-62
2023/12/03 00:14:03;;;;;;;1.83;1.58;;;7.80;58.00;;;;;;5054033;28;20453;-66
2023/12/03 00:16:29;;;;;;;1.60;1.50;;;7.80;56.90;;;;;;5053894;28;20025;-66
2023/12/03 00:18:54;;;;;;;1.67;1.50;;;7.70;55.60;;;;;;5053935;28;20025;-63
2023/12/03 00:21:20;;;;;;;1.90;1.40;;;7.60;56.40;;;;;;5053672;28;20025;-64
2023/12/03 00:23:46;;;;;;;1.30;1.20;;;7.50;56.40;;;;;;5053770;28;20013;-64
2023/12/03 00:26:11;;;;;;;1.40;1.30;;;7.50;56.40;;;;;;5053765;28;20079;-65
2023/12/03 00:28:37;;;;;;;1.55;1.45;;;7.40;56.10;;;;;;5053717;28;20489;-64
2023/12/03 00:31:03;;;;;;;1.30;1.20;;;7.40;57.20;;;;;;5053566;28;20025;-64
2023/12/03 00:33:28;;;;;;;1.40;1.30;;;7.50;57.80;;;;;;5052406;28;20413;-67
2023/12/03 00:35:54;;;;;;;1.17;0.90;;;7.40;56.90;;;;;;5053434;28;20047;-67
2023/12/03 00:38:20;;;;;;;1.92;1.40;;;7.40;57.10;;;;;;5053551;28;20029;-62
2023/12/03 00:40:45;;;;;;;1.33;1.20;;;7.40;57.00;;;;;;5052998;28;20494;-68
2023/12/03 00:43:11;;;;;;;1.30;1.20;;;7.40;57.10;;;;;;5053534;28;20021;-62
2023/12/03 00:45:37;;;;;;;1.63;1.30;;;7.30;57.50;;;;;;5053523;28;20021;-62
2023/12/03 00:48:03;;;;;;;1.30;1.20;;;7.00;58.70;;;;;;5053285;28;20379;-65
2023/12/03 00:50:29;;;;;;;1.08;0.98;;;6.90;60.20;;;;;;5053113;28;20032;-65
2023/12/03 00:52:54;;;;;;;1.23;1.13;;;6.80;59.70;;;;;;5053310;28;20076;-66
2023/12/03 00:55:20;;;;;;;1.20;1.10;;;6.80;60.30;;;;;;5053207;28;20032;-67
2023/12/03 00:57:46;;;;;;;1.42;1.33;;;7.00;59.50;;;;;;5053247;28;20024;-65
2023/12/03 01:00:13;;;;;;;1.30;1.20;;;7.00;59.60;;;;;;5053309;28;20028;-62
2023/12/03 01:02:38;;;;;;;1.42;1.08;;;6.90;60.40;;;;;;5053153;28;20025;-65
2023/12/03 01:05:04;;;;;;;1.35;1.13;;;6.80;60.80;;;;;;5053061;28;20021;-65
2023/12/03 01:07:30;;;;;;;1.63;1.27;;;6.80;60.80;;;;;;5051903;28;20116;-63
2023/12/03 01:09:56;;;;;;;1.00;0.90;;;6.70;60.50;;;;;;5052781;28;20056;-67
2023/12/03 01:12:22;;;;;;;0.90;0.90;;;6.70;61.20;;;;;;5053057;28;20368;-62
2023/12/03 01:14:48;;;;;;;1.08;1.02;;;6.60;61.00;;;;;;5053092;28;20028;-63
2023/12/03 01:17:14;;;;;;;1.65;1.38;;;6.60;61.80;;;;;;5053131;28;20028;-66
2023/12/03 01:19:39;;;;;;;1.35;1.25;;;6.60;62.30;;;;;;5052790;28;20471;-65
2023/12/03 01:22:05;;;;;;;1.30;1.17;;;6.50;63.70;;;;;;5053081;28;20032;-61
2023/12/03 01:24:31;;;;;;;1.42;1.30;;;6.60;62.50;;;;;;5053076;28;20021;-60
2023/12/03 01:26:56;;;;;;;1.00;0.90;;;6.50;63.70;;;;;;5052930;28;20049;-63
2023/12/03 01:29:22;;;;;;;0.98;0.93;;;6.50;64.20;;;;;;5052921;28;20087;-63
2023/12/03 01:31:48;;;;;;;1.23;1.13;;;6.50;65.50;;;;;;5052959;28;20021;-63
2023/12/03 01:34:14;;;;;;;1.13;1.02;;;6.50;63.50;;;;;;5052628;28;20489;-67
2023/12/03 01:36:39;;;;;;;0.95;0.88;;;6.60;63.60;;;;;;5052857;28;20399;-67
2023/12/03 01:39:05;;;;;;;1.20;1.00;;;6.40;63.60;;;;;;5052914;28;20021;-65
2023/12/03 01:41:31;;;;;;;1.55;1.38;;;6.40;64.30;;;;;;5052793;28;20097;-62
2023/12/03 01:43:57;;;;;;;0.70;0.70;;;6.50;66.30;;;;;;5052797;28;20497;-65
2023/12/03 01:46:23;;;;;;;0.70;0.70;;;6.60;64.70;;;;;;5052890;28;20045;-63
2023/12/03 01:48:50;;;;;;;1.13;0.95;;;6.70;64.50;;;;;;5052610;28;20078;-63
2023/12/03 01:51:16;;;;;;;1.00;1.00;;;6.70;62.80;;;;;;5052619;28;20024;-61
2023/12/03 01:53:43;;;;;;;1.13;1.00;;;6.60;63.30;;;;;;5055455;28;20033;-61
2023/12/03 01:56:10;;;;;;;1.13;0.90;;;6.60;64.30;;;;;;5056637;28;20071;-66
2023/12/03 01:58:36;;;;;;;0.90;0.90;;;6.50;65.10;;;;;;5056481;28;20021;-63
2023/12/03 02:01:02;;;;;;;1.10;1.00;;;6.40;65.90;;;;;;5056483;28;20024;-65
2023/12/03 02:03:29;;;;;;;1.02;0.85;;;6.40;66.20;;;;;;5056343;28;20021;-62
2023/12/03 02:06:09;;;;;;;1.17;0.98;;;6.50;65.40;;;;;;5056375;28;20024;-63
2023/12/03 02:08:35;;;;;;;0.80;0.80;;;6.50;66.50;;;;;;5056290;28;20017;-61
2023/12/03 02:11:04;;;;;;;0.90;0.80;;;6.30;70.60;;;;;;5056027;28;20053;-66
2023/12/03 02:13:32;;;;;;;0.98;0.88;;;6.40;69.60;;;;;;5056327;28;20017;-63
2023/12/03 02:15:58;;;;;;;0.88;0.88;;;6.50;69.20;;;;;;5056150;28;20032;-62
2023/12/03 02:18:24;;;;;;;1.00;0.90;;;6.50;70.10;;;;;;5056060;28;20025;-62
2023/12/03 02:20:50;;;;;;;0.93;0.88;;;6.50;70.10;;;;;;5056165;28;20029;-66
2023/12/03 02:23:16;;;;;;;0.90;0.88;;;6.30;71.50;;;;;;5056091;28;20459;-66
2023/12/03 02:25:42;;;;;;;1.38;1.27;;;6.40;72.00;;;;;;5056014;28;20021;-65
2023/12/03 02:28:08;;;;;;;2.22;0.93;;;6.40;73.20;;;;;;5055899;28;20025;-60
2023/12/03 02:30:33;;;;;;;1.17;1.08;;;6.20;74.60;;;;;;5055720;28;20411;-65
2023/12/03 02:32:59;;;;;;;1.40;0.90;;;6.00;75.30;;;;;;5055994;28;20039;-66
2023/12/03 02:35:25;;;;;;;0.70;0.70;;;6.10;75.20;;;;;;5056006;28;20375;-64
2023/12/03 02:37:51;;;;;;;1.00;0.90;;;6.30;74.40;;;;;;5055816;28;20096;-66
2023/12/03 02:40:16;;;;;;;1.20;0.90;;;6.30;73.20;;;;;;5055775;28;20017;-66
2023/12/03 02:42:42;;;;;;;0.70;0.70;;;6.30;73.70;;;;;;5055620;28;20434;-63
2023/12/03 02:45:10;;;;;;;1.05;0.90;;;6.40;72.40;;;;;;5055540;28;20359;-63
2023/12/03 02:47:35;;;;;;;1.30;1.05;;;6.50;70.10;;;;;;5055622;28;20021;-63
2023/12/03 02:50:01;;;;;;;1.10;0.90;;;6.50;71.50;;;;;;5055439;28;20017;-65
2023/12/03 02:52:27;;;;;;;1.35;1.25;;;6.40;71.40;;;;;;5055510;28;20378;-65
2023/12/03 02:54:53;;;;;;;1.38;1.27;;;6.50;70.90;;;;;;5055489;28;20029;-65
2023/12/03 02:57:19;;;;;;;1.40;1.30;;;6.40;72.10;;;;;;5055461;28;20016;-65
2023/12/03 02:59:44;;;;;;;2.45;1.17;;;6.40;69.90;;;;;;5055485;28;20374;-61
2023/12/03 03:02:10;;;;;;;1.73;1.30;;;6.30;70.50;;;;;;5055372;28;20021;-66
2023/12/03 03:04:36;;;;;;;1.70;1.20;;;6.40;71.50;;;;;;5054952;28;20021;-63
2023/12/03 03:07:02;;;;;;;1.30;1.20;;;6.40;70.20;;;;;;5055102;28;20028;-62
2023/12/03 03:09:27;;;;;;;1.08;0.98;;;6.50;69.70;;;;;;5054942;28;20078;-63
2023/12/03 03:11:54;;;;;;;1.42;1.08;;;6.60;68.00;;;;;;5055119;28;20499;-67
2023/12/03 03:14:20;;;;;;;1.25;1.13;;;6.80;66.50;;;;;;5054870;28;20036;-65
2023/12/03 03:16:46;;;;;;;1.33;0.90;;;6.80;67.40;;;;;;5055091;28;20025;-65
2023/12/03 03:19:11;;;;;;;1.73;1.17;;;6.70;68.30;;;;;;5055084;28;20375;-68
2023/12/03 03:21:38;;;;;;;1.33;1.20;;;6.70;66.70;;;;;;5054858;28;20025;-65
2023/12/03 03:24:04;;;;;;;1.15;1.00;;;6.60;66.80;;;;;;5054933;28;20494;-63
2023/12/03 03:26:30;;;;;;;1.17;1.08;;;6.50;68.10;;;;;;5054918;28;20021;-65
2023/12/03 03:28:56;;;;;;;1.30;1.17;;;6.40;68.10;;;;;;5054536;28;20025;-63
2023/12/03 03:31:21;;;;;;;1.23;1.10;;;6.40;67.90;;;;;;5054747;28;20386;-63
2023/12/03 03:33:49;;;;;;;1.08;1.02;;;6.50;67.60;;;;;;5054820;28;20082;-62
2023/12/03 03:36:15;;;;;;;1.50;1.40;;;6.50;67.60;;;;;;5054706;28;20027;-65
2023/12/03 03:38:45;;;;;;;1.30;1.20;;;6.50;68.60;;;;;;5054934;28;20021;-65
2023/12/03 03:41:11;;;;;;;1.50;1.17;;;6.40;69.10;;;;;;5054639;28;20542;-63
2023/12/03 03:43:36;;;;;;;1.33;1.23;;;6.50;67.20;;;;;;5054403;28;20417;-61
2023/12/03 03:46:02;;;;;;;1.30;1.20;;;6.50;66.50;;;;;;5054432;28;20048;-65
2023/12/03 03:48:28;;;;;;;1.33;1.23;;;6.60;65.20;;;;;;5054573;28;20049;-65
2023/12/03 03:50:54;;;;;;;1.50;1.40;;;6.60;63.60;;;;;;5054365;28;20462;-64
2023/12/03 03:53:20;;;;;;;1.92;1.48;;;6.50;64.00;;;;;;5054289;28;20017;-67
2023/12/03 03:55:45;;;;;;;1.10;1.00;;;6.50;64.70;;;;;;5054372;28;20017;-65
2023/12/03 03:58:11;;;;;;;1.50;1.40;;;6.50;64.40;;;;;;5054127;28;20025;-64
2023/12/03 04:00:38;;;;;;;1.13;1.02;;;6.40;65.80;;;;;;5054121;28;20025;-66
2023/12/03 04:03:04;;;;;;;1.40;1.30;;;6.10;64.00;;;;;;5054354;28;20036;-66
2023/12/03 04:05:30;;;;;;;6.38;1.10;;;6.10;65.00;;;;;;5054102;28;20025;-63
2023/12/03 04:07:55;;;;;;;0.88;0.88;;;5.90;63.30;;;;;;5054073;28;20048;-65
2023/12/03 04:10:21;;;;;;;0.73;0.70;;;5.90;63.70;;;;;;5053873;28;20131;-63
2023/12/03 04:12:50;;;;;;;0.77;0.65;;;5.90;61.60;;;;;;5053791;28;20025;-62
2023/12/03 04:15:17;;;;;;;1.00;0.90;;;6.00;61.00;;;;;;5053291;28;20032;-65
2023/12/03 04:17:44;;;;;;;0.95;0.90;;;6.00;61.70;;;;;;5054058;28;20017;-63
2023/12/03 04:20:10;;;;;;;1.30;0.90;;;5.90;63.30;;;;;;5053893;28;20017;-62
2023/12/03 04:22:37;;;;;;;1.05;0.90;;;5.70;64.40;;;;;;5053768;28;20467;-61
2023/12/03 04:25:02;;;;;;;1.10;0.90;;;5.70;63.70;;;;;;5053888;28;20040;-63
2023/12/03 04:27:28;;;;;;;0.80;0.75;;;5.80;65.20;;;;;;5053665;28;20499;-67
2023/12/03 04:29:54;;;;;;;1.10;1.00;;;5.90;65.70;;;;;;5052376;28;20382;-67
2023/12/03 04:32:19;;;;;;;1.00;0.90;;;6.00;64.40;;;;;;5053620;28;20447;-62
2023/12/03 04:34:45;;;;;;;1.20;1.08;;;6.10;64.40;;;;;;5053705;28;20383;-64
2023/12/03 04:37:11;;;;;;;2.92;1.50;;;6.10;64.40;;;;;;5053512;28;20021;-65
2023/12/03 04:39:37;;;;;;;1.30;1.20;;;6.10;65.70;;;;;;5053437;28;20374;-63
2023/12/03 04:42:02;;;;;;;1.80;1.30;;;6.10;64.90;;;;;;5053425;28;20029;-67
2023/12/03 04:44:31;;;;;;;2.22;1.30;;;6.20;67.60;;;;;;5053464;28;20380;-62
2023/12/03 04:46:57;;;;;;;1.67;1.15;;;5.80;69.70;;;;;;5053374;28;20555;-62
2023/12/03 04:49:24;;;;;;;1.42;1.33;;;5.90;69.80;;;;;;5053510;28;20067;-63
2023/12/03 04:51:50;;;;;;;2.10;1.42;;;6.00;69.40;;;;;;5053319;28;20065;-65
2023/12/03 04:54:16;;;;;;;1.70;1.60;;;6.10;70.10;;;;;;5053258;28;20379;-67
2023/12/03 04:56:41;;;;;;;1.98;1.27;;;6.20;68.00;;;;;;5053154;28;20021;-66
2023/12/03 04:59:07;;;;;;;1.40;1.30;;;6.20;67.60;;;;;;5053268;28;20071;-68
2023/12/03 05:01:33;;;;;;;1.50;1.30;;;6.10;67.60;;;;;;5053218;28;20133;-65
2023/12/03 05:03:58;;;;;;;1.33;1.23;;;6.10;66.90;;;;;;5053120;28;20021;-59
2023/12/03 05:06:24;;;;;;;1.17;0.90;;;6.00;66.60;;;;;;5053295;28;20021;-65
2023/12/03 05:08:50;;;;;;;1.20;0.95;;;6.00;65.30;;;;;;5053099;28;20075;-67
2023/12/03 05:11:16;;;;;;;2.08;1.30;;;6.00;64.00;;;;;;5052576;28;20051;-65
2023/12/03 05:13:42;;;;;;;1.27;1.17;;;6.00;61.70;;;;;;5053221;28;20047;-65
2023/12/03 05:16:09;;;;;;;0.98;0.90;;;6.00;59.20;;;;;;5053064;28;20025;-68
2023/12/03 05:18:34;;;;;;;1.00;0.90;;;5.90;59.30;;;;;;5052986;28;20018;-63
2023/12/03 05:21:02;;;;;;;1.40;1.20;;;5.90;59.00;;;;;;5053068;28;20082;-63
2023/12/03 05:23:27;;;;;;;0.85;0.85;;;5.90;57.90;;;;;;5052984;28;20021;-66
2023/12/03 05:25:53;;;;;;;1.40;0.98;;;5.90;56.70;;;;;;5052741;28;20025;-66
2023/12/03 05:28:19;;;;;;;1.45;1.15;;;5.90;56.50;;;;;;5056989;28;20056;-62
2023/12/03 05:30:45;;;;;;;0.80;0.80;;;5.60;54.40;;;;;;5056988;28;20150;-63
2023/12/03 05:33:10;;;;;;;1.08;1.00;;;5.60;54.50;;;;;;5056991;28;20490;-67
2023/12/03 05:35:36;;;;;;;1.17;1.02;;;5.60;56.10;;;;;;5055664;28;20028;-65
2023/12/03 05:38:02;;;;;;;1.30;1.13;;;5.60;55.40;;;;;;5056985;28;20029;-65
2023/12/03 05:40:28;;;;;;;0.90;0.90;;;5.60;54.20;;;;;;5056619;28;20102;-68
2023/12/03 05:42:53;;;;;;;1.00;0.95;;;5.50;53.20;;;;;;5056892;28;20021;-62
2023/12/03 05:45:19;;;;;;;1.10;1.00;;;5.60;54.10;;;;;;5056803;28;20118;-63
2023/12/03 05:47:45;;;;;;;0.77;0.60;;;5.50;52.90;;;;;;5056901;28;20021;-66
2023/12/03 05:50:11;;;;;;;0.80;0.73;;;5.50;53.30;;;;;;5056497;28;20479;-66
2023/12/03 05:52:36;;;;;;;0.88;0.82;;;5.60;53.60;;;;;;5056689;28;20021;-63
2023/12/03 05:55:02;;;;;;;1.08;1.00;;;5.60;52.40;;;;;;5056444;28;20044;-68
2023/12/03 05:57:28;;;;;;;0.80;0.73;;;5.60;52.50;;;;;;5056521;28;20024;-61
2023/12/03 05:59:54;;;;;;;1.52;0.90;;;5.50;53.40;;;;;;5056571;28;20051;-62
2023/12/03 06:02:20;;;;;;;0.88;0.88;;;5.60;53.20;;;;;;5056509;28;20096;-64
2023/12/03 06:04:46;;;;;;;0.75;0.70;;;5.50;53.40;;;;;;5056374;28;20075;-65
2023/12/03 06:07:12;;;;;;;1.10;0.90;;;5.50;53.00;;;;;;5056835;28;20021;-62
2023/12/03 06:09:38;;;;;;;0.80;0.80;;;5.60;53.30;;;;;;5055968;28;20552;-63
2023/12/03 06:12:04;;;;;;;1.00;0.90;;;5.60;52.40;;;;;;5056199;28;20426;-65
2023/12/03 06:14:31;;;;;;;1.02;0.80;;;5.60;53.00;;;;;;5056231;28;20025;-67
2023/12/03 06:16:57;;;;;;;1.00;0.90;;;5.60;52.10;;;;;;5056277;28;20071;-65
2023/12/03 06:19:23;;;;;;;1.00;0.80;;;5.60;51.50;;;;;;5056160;28;20028;-61
2023/12/03 06:21:48;;;;;;;1.02;0.90;;;5.50;51.90;;;;;;5056051;28;20033;-63
2023/12/03 06:24:14;;;;;;;1.25;1.15;;;5.60;51.90;;;;;;5055869;28;20356;-68
2023/12/03 06:26:40;;;;;;;1.00;0.60;;;5.60;51.80;;;;;;5056036;28;20040;-63
2023/12/03 06:29:05;;;;;;;1.10;1.00;;;5.60;52.20;;;;;;5055886;28;20036;-64
2023/12/03 06:31:32;;;;;;;1.60;1.20;;;5.70;52.60;;;;;;5055845;28;20033;-63
2023/12/03 06:33:58;;;;;;;1.95;1.20;;;5.70;51.40;;;;;;5055904;28;20021;-61
2023/12/03 06:36:25;;;;;;;1.10;1.00;;;5.60;51.50;;;;;;5055761;28;20116;-62
2023/12/03 06:38:51;;;;;;;1.33;1.00;;;5.70;51.10;;;;;;5054912;28;20048;-66
2023/12/03 06:41:17;;;;;;;1.23;1.13;;;5.60;51.10;;;;;;5054617;28;20102;-65
2023/12/03 06:43:43;;;;;;;1.48;1.00;;;5.70;51.60;;;;;;5055688;28;20021;-64
2023/12/03 06:46:08;;;;;;;1.50;1.20;;;5.60;52.20;;;;;;5055821;28;20024;-62
2023/12/03 06:48:34;;;;;;;1.90;1.25;;;5.70;51.60;;;;;;5055614;28;20532;-63
2023/12/03 06:51:00;;;;;;;1.30;1.20;;;5.80;51.40;;;;;;5055402;28;20035;-63
2023/12/03 06:53:25;;;;;;;1.77;1.40;;;5.80;50.40;;;;;;5055284;28;20025;-60
2023/12/03 06:55:51;;;;;;;1.40;1.27;;;5.70;50.90;;;;;;5055599;28;20025;-63
2023/12/03 06:58:17;;;;;;;1.67;1.27;;;5.60;51.70;;;;;;5055459;28;20021;-61
2023/12/03 07:00:42;;;;;;;1.25;1.15;;;5.60;51.40;;;;;;5055329;28;20055;-63
2023/12/03 07:03:08;;;;;;;2.05;1.40;;;5.70;50.80;;;;;;5055425;28;20360;-60
2023/12/03 07:05:34;;;;;;;1.25;1.10;;;5.60;51.10;;;;;;5055336;28;20025;-66
2023/12/03 07:07:59;;;;;;;1.40;1.30;;;5.70;51.90;;;;;;5055013;28;20021;-64
2023/12/03 07:10:25;;;;;;;2.13;1.70;;;5.80;51.50;;;;;;5054951;28;20041;-62
2023/12/03 07:12:51;;;;;;;1.55;1.42;;;5.80;50.30;;;;;;5055216;28;20025;-62
2023/12/03 07:15:17;;;;;;;1.50;1.40;;;5.90;51.50;;;;;;5055073;28;20333;-66
2023/12/03 07:17:42;;;;;;;1.25;1.15;;;6.10;51.00;;;;;;5055074;28;20434;-63
2023/12/03 07:20:09;;;;;;;1.85;1.33;;;6.30;52.00;;;;;;5054936;28;20048;-59
2023/12/03 07:22:35;;;;;;;1.85;1.23;;;6.50;49.20;;;;;;5054981;28;20378;-65
2023/12/03 07:25:02;;;;;;;2.40;2.20;;;6.60;49.70;;;;;;5055271;28;20036;-62
2023/12/03 07:27:28;;;;;;;1.83;1.52;;;6.60;47.60;;;;;;5054918;28;20075;-64
2023/12/03 07:29:57;;;;;;;2.08;1.80;;;6.70;47.80;;;;;;5054831;28;20537;-63
2023/12/03 07:32:23;;;;;;;2.78;2.58;;;6.70;47.20;;;;;;5053649;28;20025;-63
2023/12/03 07:34:49;;;;;;;2.30;2.10;;;6.70;48.20;;;;;;5054702;28;20490;-66
2023/12/03 07:37:15;;;;;;;2.17;1.98;;;6.60;47.20;;;;;;5054717;28;20025;-66
2023/12/03 07:39:41;;;;;;;1.70;1.60;;;6.40;47.70;;;;;;5054659;28;20079;-68
2023/12/03 07:42:07;;;;;;;2.20;1.60;;;6.20;49.20;;;;;;5054697;28;20029;-64
2023/12/03 07:44:32;;;;;;;1.67;1.48;;;6.10;49.80;;;;;;5054598;28;20379;-62
2023/12/03 07:46:58;;;;;;;1.40;1.23;;;6.00;49.30;;;;;;5054502;28;20032;-61
2023/12/03 07:49:24;;;;;;;1.42;1.17;;;6.00;47.90;;;;;;5053963;28;20020;-66
2023/12/03 07:51:50;;;;;;;1.35;1.13;;;5.90;46.80;;;;;;5053731;28;20032;-66
2023/12/03 07:54:17;;;;;;;1.20;1.10;;;5.70;46.80;;;;;;5054314;28;20067;-65
2023/12/03 07:56:43;;;;;;;1.08;0.95;;;5.80;46.40;;;;;;5054349;28;20045;-63
2023/12/03 07:59:09;;;;;;;1.25;1.10;;;6.00;46.90;;;;;;5054364;28;20055;-66
2023/12/03 08:01:35;;;;;;;1.27;1.17;;;6.10;46.90;;;;;;5054180;28;20020;-65
2023/12/03 08:04:03;;;;;;;0.90;0.85;;;6.10;44.90;;;;;;5054022;28;20017;-66
2023/12/03 08:06:30;;;;;;;1.30;1.20;;;6.00;45.60;;;;;;5054117;28;20162;-63
2023/12/03 08:08:57;;;;;;;0.70;0.70;;;5.90;45.90;;;;;;5053930;28;20025;-63
2023/12/03 08:11:22;;;;;;;0.95;0.90;;;6.00;46.80;;;;;;5053863;28;20072;-65
2023/12/03 08:13:48;;;;;;;1.02;0.90;;;6.00;45.00;;;;;;5054303;28;20402;-64
2023/12/03 08:16:15;;;;;;;0.80;0.80;;;5.90;45.80;;;;;;5053915;28;20442;-65
2023/12/03 08:18:41;;;;;;;1.17;1.08;;;6.00;46.40;;;;;;5053742;28;20092;-67
2023/12/03 08:21:07;;;;;;;2.15;1.40;;;6.00;45.70;;;;;;5053955;28;20108;-67
2023/12/03 08:23:33;;;;;;;1.10;1.00;;;6.00;45.60;;;;;;5053814;28;20024;-67
2023/12/03 08:25:59;;;;;;;1.00;0.80;;;6.00;46.20;;;;;;5053754;28;20017;-67
2023/12/03 08:28:25;;;;;;;1.27;1.15;;;6.10;45.70;;;;;;5053850;28;20025;-67
2023/12/03 08:30:50;;;;;;;1.50;1.23;;;6.10;46.30;;;;;;5053979;28;20387;-64
2023/12/03 08:33:16;;;;;;;1.30;1.20;;;6.00;45.90;;;;;;5053427;28;20078;-66
2023/12/03 08:35:43;;;;;;;1.33;1.20;;;6.00;46.40;;;;;;5053683;28;20021;-65
2023/12/03 08:38:09;;;;;;;1.80;1.40;;;6.00;45.00;;;;;;5053602;28;20025;-63
2023/12/03 08:40:34;;;;;;;1.20;1.10;;;6.00;46.30;;;;;;5053433;28;20496;-63
2023/12/03 08:43:00;;;;;;;1.10;1.00;;;6.10;46.00;;;;;;5053554;28;20021;-69
2023/12/03 08:45:26;;;;;;;1.10;0.98;;;6.20;45.60;;;;;;5053483;28;20475;-60
2023/12/03 08:47:52;;;;;;;2.58;1.63;;;6.30;44.80;;;;;;5053287;28;20029;-62
2023/12/03 08:50:18;;;;;;;1.50;1.15;;;6.30;44.40;;;;;;5053295;28;20365;-64
2023/12/03 08:52:43;;;;;;;1.08;0.95;;;6.40;44.60;;;;;;5053645;28;20480;-64
2023/12/03 08:55:09;;;;;;;2.30;2.10;;;6.50;43.70;;;;;;5053314;28;20021;-63
2023/12/03 08:57:36;;;;;;;1.65;1.40;;;6.60;45.10;;;;;;5053301;28;20563;-66
2023/12/03 09:00:07;;;;;;;2.05;1.77;;;6.60;44.10;;;;;;5053331;28;20036;-67
2023/12/03 09:02:33;;;;;;;2.03;1.70;;;6.70;44.10;;;;;;5052640;28;20039;-62
2023/12/03 09:04:59;;;;;;;2.30;1.40;;;6.80;43.90;;;;;;5053239;28;20104;-60
2023/12/03 09:07:25;;;;;;;1.23;1.13;;;6.80;44.80;;;;;;5053163;28;20020;-61
2023/12/03 09:09:50;;;;;;;1.20;1.10;;;6.90;43.00;;;;;;5052893;28;20107;-61
2023/12/03 09:12:17;;;;;;;1.55;1.10;;;7.00;44.00;;;;;;5052960;28;20052;-64
2023/12/03 09:14:43;;;;;;;3.00;2.70;;;7.00;44.60;;;;;;5053204;28;20021;-62
2023/12/03 09:17:09;;;;;;;2.05;1.85;;;6.90;44.00;;;;;;5053004;28;20053;-64
2023/12/03 09:19:35;;;;;;;3.83;3.28;;;6.80;45.60;;;;;;5052861;28;20390;-63
2023/12/03 09:22:00;;;;;;;2.72;1.95;;;6.70;44.90;;;;;;5053146;28;20025;-63
2023/12/03 09:24:26;;;;;;;3.78;2.28;;;6.70;43.80;;;;;;5053104;28;20100;-65
2023/12/03 09:26:52;;;;;;;3.80;3.10;;;6.50;43.90;;;;;;5052918;28;20017;-63
2023/12/03 09:29:17;;;;;;;2.42;1.95;;;6.50;44.30;;;;;;5052960;28;20017;-61
2023/12/03 09:31:43;;;;;;;4.78;3.00;;;6.30;44.90;;;;;;5052815;28;20040;-62
2023/12/03 09:34:09;;;;;;;3.97;3.03;;;6.30;44.60;;;;;;5052807;28;20028;-61
2023/12/03 09:36:35;;;;;;;4.88;3.65;;;6.40;45.40;;;;;;5053035;28;20066;-67
2023/12/03 09:39:01;;;;;;;3.95;2.88;;;6.50;44.30;;;;;;5052873;28;20051;-62
2023/12/03 09:41:29;;;;;;;2.90;2.10;;;6.50;44.60;;;;;;5052789;28;20143;-62
2023/12/03 09:44:03;;;;;;;2.03;1.73;;;6.50;44.20;;;;;;5052949;28;20390;-64
2023/12/03 09:46:32;;;;;;;2.28;1.83;;;6.40;44.30;;;;;;5052701;28;20017;-61
2023/12/03 09:49:01;;;;;;;2.05;1.63;;;6.20;43.80;;;;;;5052701;28;20475;-62
2023/12/03 09:51:28;;;;;;;1.30;1.20;;;6.10;44.40;;;;;;5052701;28;20418;-63
2023/12/03 09:53:57;;;;;;;1.38;1.27;;;6.00;42.90;;;;;;5052715;28;20090;-63
2023/12/03 09:56:25;;;;;;;1.20;1.10;;;5.90;42.90;;;;;;5052644;28;20021;-60
2023/12/03 09:58:51;;;;;;;1.50;1.40;;;6.00;44.30;;;;;;5052779;28;20052;-63
2023/12/03 10:01:18;;;;;;;0.82;0.82;;;6.20;45.60;;;;;;5052545;28;20025;-65
2023/12/03 10:03:43;;;;;;;1.40;1.30;;;6.30;43.40;;;;;;5052529;28;20506;-64
2023/12/03 10:06:11;;;;;;;0.88;0.88;;;6.40;42.80;;;;;;5052745;28;20021;-66
2023/12/03 10:08:41;;;;;;;1.30;1.17;;;6.50;42.80;;;;;;5052577;28;20021;-66
2023/12/03 10:11:10;;;;;;;1.50;1.30;;;6.60;43.50;;;;;;5052218;28;20033;-63
2023/12/03 10:13:36;;;;;;;1.40;1.13;;;6.70;43.90;;;;;;5053524;28;20033;-59
2023/12/03 10:16:02;;;;;;;1.52;1.20;;;6.80;42.70;;;;;;5056173;28;20029;-61
2023/12/03 10:18:28;;;;;;;0.93;0.93;;;6.90;42.30;;;;;;5056216;28;20021;-63
2023/12/03 10:21:07;;;;;;;1.50;1.40;;;6.90;41.90;;;;;;5056165;28;20124;-62
2023/12/03 10:23:34;;;;;;;1.30;1.20;;;7.00;42.30;;;;;;5056092;28;20096;-61
2023/12/03 10:26:10;;;;;;;1.10;1.00;;;7.10;42.80;;;;;;5056114;28;20475;-61
2023/12/03 10:28:36;;;;;;;1.42;1.33;;;7.20;42.00;;;;;;5056073;28;20017;-62
2023/12/03 10:31:02;;;;;;;1.60;1.50;;;7.20;42.40;;;;;;5055662;28;20088;-63
2023/12/03 10:33:28;;;;;;;1.40;1.30;;;7.10;43.30;;;;;;5055965;28;20025;-63
2023/12/03 10:36:02;;;;;;;1.13;1.02;;;6.90;42.70;;;;;;5055913;28;20021;-59
2023/12/03 10:38:38;;;;;;;1.38;1.10;;;6.90;43.30;;;;;;5055785;28;20546;-67
2023/12/03 10:41:09;;;;;;;1.33;1.23;;;7.10;43.10;;;;;;5054523;28;20123;-65
2023/12/03 10:43:35;;;;;;;1.30;1.20;;;7.10;43.30;;;;;;5055588;28;20497;-64
2023/12/03 10:46:04;;;;;;;2.10;1.50;;;7.20;42.50;;;;;;5055780;28;20017;-68
2023/12/03 10:48:31;;;;;;;1.80;1.45;;;7.10;41.30;;;;;;5055748;28;20022;-68
2023/12/03 10:51:04;;;;;;;1.92;1.40;;;7.10;42.00;;;;;;5055454;28;20029;-63
2023/12/03 10:53:31;;;;;;;1.58;1.48;;;7.00;43.30;;;;;;5055604;28;20025;-62
2023/12/03 10:55:57;;;;;;;2.58;1.83;;;7.00;41.50;;;;;;5054261;28;20182;-62
2023/12/03 10:58:25;;;;;;;1.42;1.33;;;6.90;41.10;;;;;;5055168;28;20106;-64
2023/12/03 11:01:10;;;;;;;1.52;1.40;;;7.00;42.00;;;;;;5055482;28;20036;-67
2023/12/03 11:04:05;;;;;;;3.20;2.53;;;7.20;42.50;;;;;;5055298;28;20028;-67
2023/12/03 11:06:34;;;;;;;1.67;1.58;;;7.40;40.70;;;;;;5054929;28;20087;-67
2023/12/03 11:09:00;;;;;;;1.30;1.20;;;7.30;39.90;;;;;;5055178;28;20092;-66
2023/12/03 11:11:26;;;;;;;1.70;1.35;;;7.20;39.90;;;;;;5054993;28;20084;-67
2023/12/03 11:13:54;;;;;;;1.77;1.40;;;7.40;39.80;;;;;;5055020;28;20489;-68
2023/12/03 11:16:21;;;;;;;2.28;1.90;;;7.60;38.40;;;;;;5055011;28;20017;-64
2023/12/03 11:19:03;;;;;;;1.38;1.27;;;7.70;39.60;;;;;;5055107;28;20020;-61
2023/12/03 11:21:37;;;;;;;1.60;1.27;;;7.80;40.40;;;;;;5054979;28;20016;-62
2023/12/03 11:24:08;;;;;;;1.80;1.40;;;7.60;39.80;;;;;;5053510;28;20387;-64
2023/12/03 11:26:34;;;;;;;1.25;1.15;;;7.70;41.20;;;;;;5054926;28;20518;-64
2023/12/03 11:29:00;;;;;;;1.20;1.05;;;7.80;42.70;;;;;;5054651;28;20021;-66
2023/12/03 11:31:26;;;;;;;1.35;1.13;;;8.00;40.30;;;;;;5054758;28;20111;-58
2023/12/03 11:33:59;;;;;;;1.63;1.30;;;8.10;39.10;;;;;;5054818;28;20021;-61
2023/12/03 11:36:45;;;;;;;1.77;1.42;;;8.00;40.00;;;;;;5054678;28;20143;-64
2023/12/03 11:39:10;;;;;;;2.70;2.05;;;8.00;39.40;;;;;;5054738;28;20391;-61
2023/12/03 11:41:42;;;;;;;2.00;1.60;;;8.10;39.00;;;;;;5054383;28;20013;-61
2023/12/03 11:44:21;;;;;;;7.13;5.88;;;8.10;39.40;;;;;;5054639;28;20021;-62
2023/12/03 11:47:00;;;;;;;3.38;3.08;;;8.10;38.90;;;;;;5054460;28;20096;-66
2023/12/03 11:49:28;;;;;;;2.78;2.58;;;7.80;39.40;;;;;;5054606;28;20084;-67
2023/12/03 11:51:54;;;;;;;2.30;2.10;;;7.80;40.90;;;;;;5054373;28;20038;-64
2023/12/03 11:55:04;;;;;;;2.10;1.90;;;7.90;41.00;;;;;;5054361;28;20434;-63
2023/12/03 11:57:32;;;;;;;1.98;1.88;;;8.00;39.90;;;;;;5053773;28;20045;-61
2023/12/03 12:00:01;;;;;;;1.75;1.55;;;7.90;39.10;;;;;;5054354;28;20021;-63
2023/12/03 12:02:26;;;;;;;2.03;1.88;;;7.90;41.20;;;;;;5054236;28;20069;-59
2023/12/03 12:04:52;;;;;;;1.77;1.63;;;7.80;41.80;;;;;;5054176;28;20141;-64
2023/12/03 12:07:18;;;;;;;2.25;1.73;;;7.80;40.40;;;;;;5054224;28;20111;-60
2023/12/03 12:09:48;;;;;;;2.15;1.95;;;7.80;40.40;;;;;;5053927;28;20100;-64
2023/12/03 12:12:15;;;;;;;2.45;2.20;;;7.80;39.80;;;;;;5053698;28;20033;-64
2023/12/03 12:14:40;;;;;;;3.15;2.72;;;7.90;39.70;;;;;;5054007;28;20017;-63
2023/12/03 12:17:08;;;;;;;2.80;2.47;;;7.80;38.90;;;;;;5053940;28;20108;-62
2023/12/03 12:19:34;;;;;;;2.28;1.88;;;7.70;39.10;;;;;;5053884;28;20048;-65
2023/12/03 12:22:00;;;;;;;2.40;2.20;;;7.30;39.90;;;;;;5053920;28;20067;-62
2023/12/03 12:24:26;;;;;;;2.40;2.20;;;6.80;40.20;;;;;;5053902;28;20443;-60
2023/12/03 12:26:54;;;;;;;2.42;2.20;;;6.70;41.30;;;;;;5053568;28;20524;-63
2023/12/03 12:29:20;;;;;;;2.40;2.20;;;6.80;41.50;;;;;;5053752;28;20375;-62
2023/12/03 12:31:46;;;;;;;2.05;1.85;;;6.80;40.50;;;;;;5053712;28;20043;-65
2023/12/03 12:34:13;;;;;;;2.30;2.10;;;6.80;40.90;;;;;;5053599;28;20020;-66
2023/12/03 12:36:43;;;;;;;2.53;2.30;;;6.70;41.10;;;;;;5053116;28;20020;-64
2023/12/03 12:39:27;;;;;;;2.65;2.00;;;6.40;41.10;;;;;;5053723;28;20037;-61
2023/12/03 12:41:55;;;;;;;2.35;2.00;;;6.40;40.90;;;;;;5053536;28;20029;-65
2023/12/03 12:44:21;;;;;;;2.28;2.08;;;6.60;41.30;;;;;;5053529;28;20086;-63
2023/12/03 12:46:55;;;;;;;2.10;1.90;;;6.80;41.70;;;;;;5053407;28;20475;-64
2023/12/03 12:49:20;;;;;;;1.38;1.27;;;6.90;41.80;;;;;;5053437;28;20096;-64
2023/12/03 12:51:46;;;;;;;1.70;1.50;;;7.10;40.80;;;;;;5053307;28;20444;-63
2023/12/03 12:54:14;;;;;;;1.83;1.73;;;7.40;40.00;;;;;;5053128;28;20495;-65
2023/12/03 12:56:41;;;;;;;1.55;1.45;;;7.50;40.90;;;;;;5053481;28;20021;-65